createdAt,value
2023-05-14T00:01:51.876Z,100.00
2023-05-14T00:04:21.433Z,100.00
2023-05-14T00:06:49.309Z,100.00
2023-05-14T00:09:17.325Z,100.00
2023-05-14T00:11:46.086Z,100.00
2023-05-14T00:14:14.048Z,100.00
2023-05-14T00:16:42.002Z,100.00
2023-05-14T00:19:10.253Z,100.00
2023-05-14T00:21:39.862Z,100.00
2023-05-14T00:24:08.160Z,100.00
2023-05-14T00:26:36.181Z,100.00
2023-05-14T00:29:04.304Z,100.00
2023-05-14T00:31:32.382Z,100.00
2023-05-14T00:34:00.419Z,100.00
2023-05-14T00:36:28.550Z,100.00
2023-05-14T00:38:57.866Z,100.00
2023-05-14T00:41:25.984Z,100.00
2023-05-14T00:43:54.185Z,100.00
2023-05-14T00:46:22.642Z,100.00
2023-05-14T00:48:50.719Z,100.00
2023-05-14T00:51:19.773Z,100.00
2023-05-14T00:53:48.188Z,100.00
2023-05-14T00:56:18.294Z,100.00
2023-05-14T00:58:46.257Z,100.00
2023-05-14T01:01:15.363Z,100.00
2023-05-14T01:03:44.251Z,100.00
2023-05-14T01:06:18.277Z,100.00
2023-05-14T01:09:10.039Z,100.00
2023-05-14T01:11:48.495Z,100.00
2023-05-14T01:14:22.752Z,100.00
2023-05-14T01:16:54.164Z,100.00
2023-05-14T01:19:28.305Z,100.00
2023-05-14T01:21:57.592Z,100.00
2023-05-14T01:24:25.537Z,100.00
2023-05-14T01:26:55.044Z,100.00
2023-05-14T01:29:24.783Z,100.00
2023-05-14T01:31:56.586Z,100.00
2023-05-14T01:34:26.519Z,100.00
2023-05-14T01:36:54.959Z,100.00
2023-05-14T01:39:25.711Z,100.00
2023-05-14T01:41:54.568Z,100.00
2023-05-14T01:44:23.010Z,100.00
2023-05-14T01:46:51.032Z,100.00
2023-05-14T01:49:19.697Z,100.00
2023-05-14T01:51:47.726Z,100.00
2023-05-14T01:54:15.728Z,100.00
2023-05-14T01:56:45.088Z,100.00
2023-05-14T01:59:13.107Z,100.00
2023-05-14T02:01:41.330Z,100.00
2023-05-14T02:04:09.882Z,100.00
2023-05-14T02:06:37.964Z,100.00
2023-05-14T02:09:06.584Z,100.00
2023-05-14T02:11:34.713Z,100.00
2023-05-14T02:14:04.207Z,100.00
2023-05-14T02:16:32.344Z,100.00
2023-05-14T02:19:00.609Z,100.00
2023-05-14T02:21:28.681Z,100.00
2023-05-14T02:23:57.190Z,100.00
2023-05-14T02:26:25.228Z,100.00
2023-05-14T02:28:53.240Z,100.00
2023-05-14T02:31:22.795Z,100.00
2023-05-14T02:33:51.275Z,100.00
2023-05-14T02:36:19.448Z,99.30
2023-05-14T02:38:47.578Z,98.68
2023-05-14T02:41:15.752Z,98.08
2023-05-14T02:43:43.764Z,97.34
2023-05-14T02:46:11.722Z,96.46
2023-05-14T02:48:41.107Z,95.71
2023-05-14T02:51:09.423Z,94.89
2023-05-14T02:53:37.477Z,94.85
2023-05-14T02:56:06.024Z,94.38
2023-05-14T02:58:33.967Z,93.22
2023-05-14T03:01:01.929Z,93.72
2023-05-14T03:03:30.860Z,93.03
2023-05-14T03:06:00.666Z,92.49
2023-05-14T03:08:28.658Z,91.77
2023-05-14T03:10:56.776Z,91.65
2023-05-14T03:13:24.757Z,91.02
2023-05-14T03:15:55.084Z,90.93
2023-05-14T03:18:23.241Z,90.53
2023-05-14T03:20:51.279Z,90.57
2023-05-14T03:23:20.807Z,90.82
2023-05-14T03:25:48.653Z,91.19
2023-05-14T03:28:16.701Z,91.17
2023-05-14T03:30:44.724Z,90.73
2023-05-14T03:33:13.744Z,90.29
2023-05-14T03:35:41.758Z,90.64
2023-05-14T03:38:09.797Z,90.32
2023-05-14T03:40:39.150Z,89.25
2023-05-14T03:43:07.187Z,88.50
2023-05-14T03:45:35.185Z,88.55
2023-05-14T03:48:03.270Z,88.82
2023-05-14T03:50:31.401Z,89.35
2023-05-14T03:52:59.388Z,89.23
2023-05-14T03:55:27.336Z,88.98
2023-05-14T03:57:56.724Z,87.98
2023-05-14T04:00:25.178Z,87.13
2023-05-14T04:02:53.720Z,86.91
2023-05-14T04:05:21.916Z,87.03
2023-05-14T04:07:50.053Z,86.42
2023-05-14T04:10:18.059Z,85.82
2023-05-14T04:12:46.331Z,85.82
2023-05-14T04:15:15.931Z,85.37
2023-05-14T04:17:44.069Z,84.98
2023-05-14T04:20:12.451Z,83.51
2023-05-14T04:22:40.520Z,81.79
2023-05-14T04:25:09.321Z,81.04
2023-05-14T04:27:37.272Z,79.70
2023-05-14T04:30:06.625Z,78.62
2023-05-14T04:32:36.533Z,78.01
2023-05-14T04:35:05.426Z,76.66
2023-05-14T04:37:33.572Z,75.28
2023-05-14T04:40:01.798Z,74.49
2023-05-14T04:42:29.943Z,72.90
2023-05-14T04:44:58.384Z,72.27
2023-05-14T04:47:26.582Z,71.36
2023-05-14T04:49:56.014Z,70.67
2023-05-14T04:52:23.980Z,70.45
2023-05-14T04:54:52.155Z,70.39
2023-05-14T04:57:20.326Z,69.77
2023-05-14T04:59:48.567Z,68.94
2023-05-14T05:02:16.540Z,68.90
2023-05-14T05:04:44.655Z,69.79
2023-05-14T05:07:14.618Z,69.20
2023-05-14T05:09:42.725Z,68.67
2023-05-14T05:12:11.019Z,68.36
2023-05-14T05:14:38.983Z,69.35
2023-05-14T05:17:09.976Z,68.87
2023-05-14T05:19:43.734Z,68.92
2023-05-14T05:22:13.829Z,67.41
2023-05-14T05:24:42.011Z,66.15
2023-05-14T05:27:12.628Z,63.65
2023-05-14T05:29:40.736Z,62.12
2023-05-14T05:32:09.273Z,61.07
2023-05-14T05:34:37.436Z,59.71
2023-05-14T05:37:06.465Z,59.58
2023-05-14T05:39:36.044Z,58.35
2023-05-14T05:42:04.305Z,57.43
2023-05-14T05:44:32.525Z,56.10
2023-05-14T05:47:00.730Z,55.98
2023-05-14T05:49:29.139Z,55.42
2023-05-14T05:51:57.518Z,55.11
2023-05-14T05:54:27.223Z,54.43
2023-05-14T05:56:56.705Z,54.38
2023-05-14T05:59:25.771Z,54.00
2023-05-14T06:01:54.008Z,53.70
2023-05-14T06:04:25.287Z,52.80
2023-05-14T06:06:53.399Z,52.87
2023-05-14T06:09:21.448Z,51.91
2023-05-14T06:11:49.516Z,52.73
2023-05-14T06:14:18.856Z,52.50
2023-05-14T06:16:47.101Z,52.76
2023-05-14T06:19:15.302Z,52.00
2023-05-14T06:21:43.340Z,51.56
2023-05-14T06:24:13.295Z,50.01
2023-05-14T06:26:41.369Z,49.84
2023-05-14T06:29:09.321Z,49.01
2023-05-14T06:31:38.800Z,49.03
2023-05-14T06:34:06.958Z,48.99
2023-05-14T06:36:34.832Z,49.17
2023-05-14T06:39:03.616Z,48.53
2023-05-14T06:41:31.738Z,47.96
2023-05-14T06:43:59.712Z,48.04
2023-05-14T06:46:27.806Z,47.86
2023-05-14T06:48:59.305Z,47.67
2023-05-14T06:51:27.788Z,48.28
2023-05-14T06:53:56.515Z,47.79
2023-05-14T06:56:24.513Z,47.77
2023-05-14T06:58:52.464Z,47.54
2023-05-14T07:01:20.490Z,46.37
2023-05-14T07:03:48.570Z,45.93
2023-05-14T07:06:18.059Z,46.41
2023-05-14T07:08:46.786Z,46.55
2023-05-14T07:11:15.336Z,46.40
2023-05-14T07:13:44.697Z,45.68
2023-05-14T07:16:12.748Z,45.38
2023-05-14T07:18:41.033Z,45.60
2023-05-14T07:21:09.119Z,45.97
2023-05-14T07:23:38.502Z,45.60
2023-05-14T07:26:07.195Z,45.40
2023-05-14T07:28:35.486Z,44.87
2023-05-14T07:31:05.026Z,45.59
2023-05-14T07:33:33.177Z,45.12
2023-05-14T07:36:01.275Z,46.12
2023-05-14T07:38:29.557Z,45.31
2023-05-14T07:40:59.008Z,44.60
2023-05-14T07:43:27.435Z,44.59
2023-05-14T07:45:55.649Z,43.63
2023-05-14T07:48:23.717Z,43.19
2023-05-14T07:50:52.008Z,42.82
2023-05-14T07:53:19.973Z,41.95
2023-05-14T07:55:48.485Z,42.19
2023-05-14T07:58:17.771Z,41.81
2023-05-14T08:00:45.905Z,41.62
2023-05-14T08:03:14.036Z,41.32
2023-05-14T08:05:42.588Z,40.72
2023-05-14T08:08:10.723Z,41.43
2023-05-14T08:10:39.043Z,39.88
2023-05-14T08:13:07.146Z,39.86
2023-05-14T08:15:36.542Z,39.54
2023-05-14T08:18:04.761Z,39.16
2023-05-14T08:20:32.810Z,39.92
2023-05-14T08:23:00.725Z,39.91
2023-05-14T08:25:28.816Z,40.05
2023-05-14T08:27:56.929Z,40.04
2023-05-14T08:30:25.363Z,39.22
2023-05-14T08:32:55.314Z,40.03
2023-05-14T08:35:23.342Z,39.97
2023-05-14T08:37:52.242Z,39.70
2023-05-14T08:40:20.580Z,39.91
2023-05-14T08:42:49.170Z,39.96
2023-05-14T08:45:20.360Z,40.44
2023-05-14T08:47:50.563Z,40.87
2023-05-14T08:50:22.929Z,41.63
2023-05-14T08:52:51.672Z,41.55
2023-05-14T08:55:21.048Z,42.07
2023-05-14T08:57:50.577Z,42.20
2023-05-14T09:00:18.930Z,42.30
2023-05-14T09:02:48.906Z,42.15
2023-05-14T09:05:20.467Z,41.71
2023-05-14T09:07:48.511Z,42.00
2023-05-14T09:10:17.298Z,41.85
2023-05-14T09:12:45.552Z,41.44
2023-05-14T09:15:13.975Z,41.73
2023-05-14T09:17:42.178Z,41.87
2023-05-14T09:20:12.114Z,41.89
2023-05-14T09:22:41.535Z,41.68
2023-05-14T09:25:12.355Z,41.43
2023-05-14T09:27:43.281Z,40.58
2023-05-14T09:30:12.976Z,40.52
2023-05-14T09:32:44.074Z,40.01
2023-05-14T09:35:17.053Z,39.69
2023-05-14T09:37:47.856Z,39.70
2023-05-14T09:40:17.576Z,38.51
2023-05-14T09:42:45.864Z,38.67
2023-05-14T09:45:13.970Z,38.01
2023-05-14T09:47:42.130Z,38.46
2023-05-14T09:50:10.600Z,38.34
2023-05-14T09:52:39.400Z,37.42
2023-05-14T09:55:10.036Z,38.01
2023-05-14T09:57:37.958Z,37.10
2023-05-14T10:00:08.628Z,37.36
2023-05-14T10:02:40.650Z,36.85
2023-05-14T10:05:09.898Z,37.04
2023-05-14T10:07:41.675Z,37.78
2023-05-14T10:10:17.654Z,37.80
2023-05-14T10:12:52.145Z,37.51
2023-05-14T10:15:24.417Z,37.81
2023-05-14T10:17:57.935Z,38.77
2023-05-14T10:20:27.602Z,38.75
2023-05-14T10:22:55.588Z,38.59
2023-05-14T10:25:25.457Z,38.62
2023-05-14T10:27:53.979Z,38.54
2023-05-14T10:30:23.955Z,38.13
2023-05-14T10:33:07.628Z,38.40
2023-05-14T10:35:56.165Z,38.56
2023-05-14T10:38:27.197Z,37.85
2023-05-14T10:41:00.015Z,37.79
2023-05-14T10:43:30.766Z,37.62
2023-05-14T10:46:00.052Z,37.13
2023-05-14T10:48:28.476Z,37.61
2023-05-14T10:50:59.677Z,37.94
2023-05-14T10:53:35.258Z,37.28
2023-05-14T10:56:06.821Z,37.03
2023-05-14T10:58:37.293Z,37.75
2023-05-14T11:01:07.269Z,37.51
2023-05-14T11:03:42.111Z,37.31
2023-05-14T11:06:11.209Z,37.49
2023-05-14T11:08:39.938Z,37.38
2023-05-14T11:11:10.926Z,37.20
2023-05-14T11:13:39.504Z,37.01
2023-05-14T11:16:21.977Z,37.12
2023-05-14T11:18:55.844Z,36.37
2023-05-14T11:21:23.982Z,36.46
2023-05-14T11:23:51.969Z,36.09
2023-05-14T11:26:21.825Z,36.21
2023-05-14T11:28:50.480Z,35.76
2023-05-14T11:31:19.110Z,35.05
2023-05-14T11:33:47.391Z,35.75
2023-05-14T11:36:15.639Z,36.08
2023-05-14T11:38:51.531Z,35.04
2023-05-14T11:41:21.364Z,34.57
2023-05-14T11:43:51.102Z,34.58
2023-05-14T11:46:19.775Z,34.71
2023-05-14T11:48:48.301Z,34.40
2023-05-14T11:51:16.324Z,34.36
2023-05-14T11:53:44.336Z,34.14
2023-05-14T11:56:12.494Z,33.48
2023-05-14T11:58:40.957Z,33.54
2023-05-14T12:01:14.743Z,33.13
2023-05-14T12:03:42.964Z,33.08
2023-05-14T12:06:11.132Z,32.33
2023-05-14T12:08:39.119Z,32.21
2023-05-14T12:11:07.672Z,32.30
2023-05-14T12:13:37.507Z,33.50
2023-05-14T12:16:06.085Z,31.85
2023-05-14T12:18:35.690Z,30.55
2023-05-14T12:21:05.008Z,30.54
2023-05-14T12:23:33.866Z,29.90
2023-05-14T12:26:06.956Z,30.21
2023-05-14T12:28:38.025Z,31.42
2023-05-14T12:31:06.990Z,31.68
2023-05-14T12:33:36.429Z,31.11
2023-05-14T12:36:20.664Z,31.41
2023-05-14T12:38:50.060Z,31.95
2023-05-14T12:41:18.343Z,32.39
2023-05-14T12:43:48.665Z,32.78
2023-05-14T12:46:17.190Z,33.53
2023-05-14T12:48:47.336Z,32.87
2023-05-14T12:51:15.618Z,33.21
2023-05-14T12:53:43.859Z,36.67
2023-05-14T12:56:12.084Z,36.64
2023-05-14T12:58:40.200Z,35.90
2023-05-14T13:01:08.551Z,36.33
2023-05-14T13:03:36.649Z,35.92
2023-05-14T13:06:06.614Z,36.39
2023-05-14T13:08:34.640Z,35.90
2023-05-14T13:11:02.610Z,34.99
2023-05-14T13:13:30.633Z,33.63
2023-05-14T13:15:58.710Z,33.52
2023-05-14T13:18:27.253Z,32.34
2023-05-14T13:20:55.521Z,32.24
2023-05-14T13:23:25.309Z,32.56
2023-05-14T13:25:53.348Z,31.83
2023-05-14T13:28:21.285Z,31.82
2023-05-14T13:31:07.026Z,32.38
2023-05-14T13:33:37.308Z,32.82
2023-05-14T13:36:05.843Z,32.88
2023-05-14T13:38:35.393Z,33.11
2023-05-14T13:41:03.499Z,33.21
2023-05-14T13:43:32.115Z,33.84
2023-05-14T13:46:00.314Z,33.58
2023-05-14T13:48:28.873Z,33.63
2023-05-14T13:50:57.056Z,34.27
2023-05-14T13:53:26.085Z,34.46
2023-05-14T13:55:58.411Z,34.44
2023-05-14T13:58:26.690Z,34.77
2023-05-14T14:00:55.181Z,34.34
2023-05-14T14:03:23.189Z,33.94
2023-05-14T14:05:51.680Z,32.84
2023-05-14T14:08:24.032Z,32.71
2023-05-14T14:10:54.572Z,32.47
2023-05-14T14:13:24.434Z,32.53
2023-05-14T14:15:52.923Z,31.60
2023-05-14T14:18:21.042Z,31.12
2023-05-14T14:20:49.283Z,31.60
2023-05-14T14:23:17.212Z,32.13
2023-05-14T14:25:45.287Z,31.87
2023-05-14T14:28:13.684Z,31.84
2023-05-14T14:30:43.848Z,32.30
2023-05-14T14:33:12.504Z,32.26
2023-05-14T14:35:40.599Z,33.53
2023-05-14T14:38:08.608Z,34.15
2023-05-14T14:40:36.741Z,34.11
2023-05-14T14:43:04.809Z,33.79
2023-05-14T14:45:32.798Z,33.69
2023-05-14T14:48:28.373Z,33.93
2023-05-14T14:50:56.644Z,34.29
2023-05-14T14:53:25.548Z,34.68
2023-05-14T14:55:54.228Z,34.38
2023-05-14T14:58:22.521Z,34.94
2023-05-14T15:00:52.452Z,35.11
2023-05-14T15:03:20.857Z,35.70
2023-05-14T15:05:51.178Z,35.60
2023-05-14T15:08:19.216Z,36.41
2023-05-14T15:10:47.694Z,36.69
2023-05-14T15:13:15.701Z,37.47
2023-05-14T15:15:43.674Z,37.96
2023-05-14T15:18:11.947Z,37.87
2023-05-14T15:20:40.072Z,37.06
2023-05-14T15:23:11.650Z,37.18
2023-05-14T15:25:39.918Z,37.10
2023-05-14T15:28:08.265Z,36.41
2023-05-14T15:30:36.640Z,36.79
2023-05-14T15:33:04.764Z,37.51
2023-05-14T15:35:32.729Z,37.89
2023-05-14T15:38:00.795Z,37.45
2023-05-14T15:40:30.402Z,37.56
2023-05-14T15:42:58.437Z,37.77
2023-05-14T15:45:26.440Z,37.30
2023-05-14T15:47:54.730Z,36.98
2023-05-14T15:50:22.963Z,37.00
2023-05-14T15:52:51.328Z,37.52
2023-05-14T15:55:19.423Z,37.38
2023-05-14T15:57:48.779Z,37.53
2023-05-14T16:00:17.629Z,37.43
2023-05-14T16:02:45.717Z,37.27
2023-05-14T16:05:18.305Z,37.41
2023-05-14T16:07:46.558Z,37.44
2023-05-14T16:10:14.531Z,37.97
2023-05-14T16:12:42.607Z,38.14
2023-05-14T16:15:12.909Z,37.38
2023-05-14T16:17:41.059Z,37.39
2023-05-14T16:20:09.964Z,37.33
2023-05-14T16:22:37.888Z,37.12
2023-05-14T16:25:06.704Z,36.66
2023-05-14T16:27:35.547Z,37.26
2023-05-14T16:30:04.542Z,37.05
2023-05-14T16:32:33.920Z,37.69
2023-05-14T16:35:02.974Z,37.22
2023-05-14T16:37:32.085Z,38.29
2023-05-14T16:40:00.048Z,37.83
2023-05-14T16:42:28.237Z,37.42
2023-05-14T16:44:56.207Z,38.33
2023-05-14T16:47:24.256Z,37.97
2023-05-14T16:49:53.597Z,37.98
2023-05-14T16:52:21.685Z,37.86
2023-05-14T16:54:49.509Z,38.36
2023-05-14T16:57:17.519Z,38.69
2023-05-14T16:59:45.542Z,38.28
2023-05-14T17:02:13.602Z,38.24
2023-05-14T17:04:42.284Z,38.95
2023-05-14T17:07:11.757Z,38.89
2023-05-14T17:09:39.880Z,39.31
2023-05-14T17:12:09.680Z,39.04
2023-05-14T17:14:37.579Z,39.34
2023-05-14T17:17:06.092Z,39.21
2023-05-14T17:19:36.165Z,39.51
2023-05-14T17:22:05.879Z,39.95
2023-05-14T17:24:36.540Z,39.61
2023-05-14T17:27:04.865Z,39.97
2023-05-14T17:29:33.007Z,40.39
2023-05-14T17:32:01.207Z,40.26
2023-05-14T17:34:31.089Z,40.52
2023-05-14T17:36:59.192Z,40.82
2023-05-14T17:39:27.325Z,41.25
2023-05-14T17:41:58.693Z,41.17
2023-05-14T17:44:26.717Z,41.58
2023-05-14T17:46:54.870Z,41.68
2023-05-14T17:49:23.001Z,41.75
2023-05-14T17:51:50.975Z,42.21
2023-05-14T17:54:18.992Z,42.46
2023-05-14T17:56:48.181Z,42.50
2023-05-14T17:59:17.713Z,42.61
2023-05-14T18:01:45.735Z,43.12
2023-05-14T18:04:13.758Z,42.46
2023-05-14T18:06:41.717Z,43.03
2023-05-14T18:09:09.632Z,43.02
2023-05-14T18:11:37.615Z,43.02
2023-05-14T18:14:05.690Z,42.79
2023-05-14T18:16:35.150Z,42.80
2023-05-14T18:19:03.396Z,42.63
2023-05-14T18:21:31.617Z,43.58
2023-05-14T18:23:59.700Z,43.62
2023-05-14T18:26:27.803Z,43.71
2023-05-14T18:28:55.864Z,43.87
2023-05-14T18:31:23.818Z,43.85
2023-05-14T18:33:53.269Z,44.15
2023-05-14T18:36:21.374Z,43.78
2023-05-14T18:38:49.425Z,44.31
2023-05-14T18:41:17.425Z,44.29
2023-05-14T18:43:45.580Z,44.93
2023-05-14T18:46:13.698Z,45.31
2023-05-14T18:48:41.872Z,45.32
2023-05-14T18:51:12.416Z,45.52
2023-05-14T18:53:40.551Z,45.56
2023-05-14T18:56:09.550Z,45.80
2023-05-14T18:58:37.554Z,46.29
2023-05-14T19:01:05.494Z,46.29
2023-05-14T19:03:33.831Z,46.63
2023-05-14T19:06:01.930Z,47.19
2023-05-14T19:08:31.193Z,47.18
2023-05-14T19:10:59.308Z,47.45
2023-05-14T19:13:30.319Z,47.04
2023-05-14T19:15:58.342Z,46.49
2023-05-14T19:18:26.454Z,46.62
2023-05-14T19:20:56.614Z,47.29
2023-05-14T19:23:24.764Z,46.71
2023-05-14T19:25:54.252Z,46.84
2023-05-14T19:28:22.427Z,47.24
2023-05-14T19:30:51.325Z,46.86
2023-05-14T19:33:19.380Z,46.57
2023-05-14T19:35:47.743Z,47.32
2023-05-14T19:38:15.788Z,47.07
2023-05-14T19:40:45.017Z,46.15
2023-05-14T19:43:14.636Z,46.81
2023-05-14T19:45:42.854Z,46.85
2023-05-14T19:48:12.497Z,47.54
2023-05-14T19:50:41.528Z,47.98
2023-05-14T19:53:09.555Z,48.32
2023-05-14T19:55:37.560Z,48.89
2023-05-14T19:58:05.667Z,49.34
2023-05-14T20:00:37.062Z,50.42
2023-05-14T20:03:05.950Z,51.05
2023-05-14T20:05:36.164Z,51.80
2023-05-14T20:08:06.598Z,51.84
2023-05-14T20:10:34.781Z,51.79
2023-05-14T20:13:02.710Z,52.08
2023-05-14T20:15:31.245Z,52.35
2023-05-14T20:18:01.042Z,53.87
2023-05-14T20:20:32.996Z,55.41
2023-05-14T20:23:01.585Z,56.46
2023-05-14T20:25:29.746Z,57.89
2023-05-14T20:27:58.098Z,58.92
2023-05-14T20:30:26.281Z,59.57
2023-05-14T20:32:54.445Z,61.06
2023-05-14T20:35:24.084Z,62.18
2023-05-14T20:37:52.497Z,63.58
2023-05-14T20:40:21.445Z,64.70
2023-05-14T20:42:50.699Z,65.69
2023-05-14T20:45:18.773Z,67.20
2023-05-14T20:47:46.731Z,67.81
2023-05-14T20:50:14.885Z,68.09
2023-05-14T20:52:44.325Z,68.40
2023-05-14T20:55:13.362Z,67.61
2023-05-14T20:57:43.577Z,67.14
2023-05-14T21:00:13.252Z,67.48
2023-05-14T21:02:41.496Z,68.09
2023-05-14T21:05:09.829Z,67.48
2023-05-14T21:07:39.348Z,67.93
2023-05-14T21:10:10.143Z,68.91
2023-05-14T21:12:38.232Z,70.08
2023-05-14T21:15:07.038Z,70.55
2023-05-14T21:17:35.027Z,73.45
2023-05-14T21:20:03.147Z,75.00
2023-05-14T21:22:31.109Z,74.25
2023-05-14T21:24:59.146Z,74.28
2023-05-14T21:27:28.552Z,75.40
2023-05-14T21:29:56.512Z,75.43
2023-05-14T21:32:24.588Z,75.09
2023-05-14T21:34:52.620Z,74.83
2023-05-14T21:37:20.922Z,75.59
2023-05-14T21:39:49.084Z,76.07
2023-05-14T21:42:17.757Z,76.76
2023-05-14T21:44:47.071Z,77.19
2023-05-14T21:47:15.084Z,76.57
2023-05-14T21:49:43.149Z,76.98
2023-05-14T21:52:11.273Z,77.37
2023-05-14T21:54:39.241Z,77.77
2023-05-14T21:57:07.553Z,77.95
2023-05-14T21:59:36.296Z,77.94
2023-05-14T22:02:07.846Z,78.05
2023-05-14T22:04:36.392Z,78.11
2023-05-14T22:07:04.584Z,77.97
2023-05-14T22:09:32.608Z,78.40
2023-05-14T22:12:00.775Z,79.05
2023-05-14T22:14:28.809Z,79.72
2023-05-14T22:16:57.643Z,80.20
2023-05-14T22:19:27.847Z,81.17
2023-05-14T22:21:56.092Z,81.75
2023-05-14T22:24:24.110Z,82.35
2023-05-14T22:26:52.263Z,82.37
2023-05-14T22:29:20.244Z,82.83
2023-05-14T22:31:48.363Z,82.97
2023-05-14T22:34:16.482Z,83.23
2023-05-14T22:36:45.893Z,83.88
2023-05-14T22:39:14.085Z,83.97
2023-05-14T22:41:42.062Z,84.02
2023-05-14T22:44:10.233Z,83.97
2023-05-14T22:46:38.459Z,84.04
2023-05-14T22:49:06.480Z,84.14
2023-05-14T22:51:34.441Z,83.83
2023-05-14T22:54:04.049Z,83.25
2023-05-14T22:56:32.263Z,83.00
2023-05-14T22:59:01.130Z,83.36
2023-05-14T23:01:29.762Z,83.81
2023-05-14T23:03:57.832Z,84.17
2023-05-14T23:06:26.481Z,84.27
2023-05-14T23:08:54.479Z,84.94
2023-05-14T23:11:23.850Z,84.79
2023-05-14T23:13:51.878Z,84.81
2023-05-14T23:16:20.467Z,84.87
2023-05-14T23:18:48.574Z,84.84
2023-05-14T23:21:16.774Z,84.38
2023-05-14T23:23:45.445Z,84.23
2023-05-14T23:26:13.588Z,84.54
2023-05-14T23:28:42.856Z,84.64
2023-05-14T23:31:10.900Z,84.51
2023-05-14T23:33:39.865Z,84.71
2023-05-14T23:36:08.925Z,85.07
2023-05-14T23:38:37.175Z,85.02
2023-05-14T23:41:05.379Z,85.22
2023-05-14T23:43:33.875Z,85.65
2023-05-14T23:46:03.975Z,85.84
2023-05-14T23:48:32.230Z,85.92
2023-05-14T23:51:00.125Z,86.62
2023-05-14T23:53:28.217Z,86.65
2023-05-14T23:55:56.579Z,86.98
2023-05-14T23:58:24.800Z,87.26
